sensor_id;sensor_type;location;lat;lon;timestamp;P1;durP1;ratioP1;P2;durP2;ratioP2
10939;SDS011;5522;42.696;23.494;2022-11-03T00:01:10;13.88;;;4.55;;
10939;SDS011;5522;42.696;23.494;2022-11-03T00:03:37;16.23;;;4.72;;
10939;SDS011;5522;42.696;23.494;2022-11-03T00:06:04;9.30;;;3.83;;
10939;SDS011;5522;42.696;23.494;2022-11-03T00:08:34;10.30;;;3.83;;
10939;SDS011;5522;42.696;23.494;2022-11-03T00:11:06;8.23;;;4.30;;
10939;SDS011;5522;42.696;23.494;2022-11-03T00:13:36;19.58;;;4.88;;
10939;SDS011;5522;42.696;23.494;2022-11-03T00:16:04;13.25;;;4.25;;
10939;SDS011;5522;42.696;23.494;2022-11-03T00:18:32;10.48;;;4.22;;
10939;SDS011;5522;42.696;23.494;2022-11-03T00:21:00;10.35;;;5.07;;
10939;SDS011;5522;42.696;23.494;2022-11-03T00:23:28;12.55;;;4.57;;
10939;SDS011;5522;42.696;23.494;2022-11-03T00:26:03;7.63;;;4.53;;
10939;SDS011;5522;42.696;23.494;2022-11-03T00:28:32;10.75;;;4.43;;
10939;SDS011;5522;42.696;23.494;2022-11-03T00:31:00;10.02;;;3.92;;
10939;SDS011;5522;42.696;23.494;2022-11-03T00:33:30;8.32;;;4.25;;
10939;SDS011;5522;42.696;23.494;2022-11-03T00:35:57;11.40;;;4.57;;
10939;SDS011;5522;42.696;23.494;2022-11-03T00:38:25;11.30;;;5.05;;
10939;SDS011;5522;42.696;23.494;2022-11-03T00:40:52;11.93;;;4.28;;
10939;SDS011;5522;42.696;23.494;2022-11-03T00:43:21;10.63;;;3.88;;
10939;SDS011;5522;42.696;23.494;2022-11-03T00:45:50;15.65;;;4.68;;
10939;SDS011;5522;42.696;23.494;2022-11-03T00:48:18;6.45;;;3.70;;
10939;SDS011;5522;42.696;23.494;2022-11-03T00:51:05;13.93;;;4.38;;
10939;SDS011;5522;42.696;23.494;2022-11-03T00:53:33;12.13;;;4.55;;
10939;SDS011;5522;42.696;23.494;2022-11-03T00:56:01;14.88;;;4.80;;
10939;SDS011;5522;42.696;23.494;2022-11-03T00:58:30;12.18;;;4.53;;
10939;SDS011;5522;42.696;23.494;2022-11-03T01:06:08;11.45;;;4.80;;
10939;SDS011;5522;42.696;23.494;2022-11-03T01:08:54;9.73;;;4.50;;
10939;SDS011;5522;42.696;23.494;2022-11-03T01:11:22;13.23;;;4.13;;
10939;SDS011;5522;42.696;23.494;2022-11-03T01:14:08;10.02;;;3.78;;
10939;SDS011;5522;42.696;23.494;2022-11-03T01:16:37;11.52;;;5.13;;
10939;SDS011;5522;42.696;23.494;2022-11-03T01:19:04;11.18;;;4.65;;
10939;SDS011;5522;42.696;23.494;2022-11-03T01:21:31;12.85;;;4.68;;
10939;SDS011;5522;42.696;23.494;2022-11-03T01:23:59;7.82;;;4.38;;
10939;SDS011;5522;42.696;23.494;2022-11-03T01:26:26;8.60;;;5.07;;
10939;SDS011;5522;42.696;23.494;2022-11-03T01:28:53;8.57;;;4.63;;
10939;SDS011;5522;42.696;23.494;2022-11-03T01:31:22;11.25;;;5.10;;
10939;SDS011;5522;42.696;23.494;2022-11-03T01:33:50;8.35;;;4.82;;
10939;SDS011;5522;42.696;23.494;2022-11-03T01:36:19;9.43;;;4.70;;
10939;SDS011;5522;42.696;23.494;2022-11-03T01:38:46;9.40;;;4.38;;
10939;SDS011;5522;42.696;23.494;2022-11-03T01:41:14;11.10;;;4.47;;
10939;SDS011;5522;42.696;23.494;2022-11-03T01:43:42;11.80;;;5.38;;
10939;SDS011;5522;42.696;23.494;2022-11-03T01:46:12;13.55;;;4.90;;
10939;SDS011;5522;42.696;23.494;2022-11-03T01:48:46;10.48;;;4.30;;
10939;SDS011;5522;42.696;23.494;2022-11-03T01:51:17;12.70;;;4.95;;
10939;SDS011;5522;42.696;23.494;2022-11-03T01:53:48;17.20;;;4.90;;
10939;SDS011;5522;42.696;23.494;2022-11-03T01:56:17;10.60;;;4.32;;
10939;SDS011;5522;42.696;23.494;2022-11-03T01:58:46;7.65;;;4.00;;
10939;SDS011;5522;42.696;23.494;2022-11-03T02:01:16;8.90;;;3.58;;
10939;SDS011;5522;42.696;23.494;2022-11-03T02:03:44;12.30;;;4.78;;
10939;SDS011;5522;42.696;23.494;2022-11-03T02:06:16;12.23;;;4.35;;
10939;SDS011;5522;42.696;23.494;2022-11-03T02:08:45;8.43;;;4.20;;
10939;SDS011;5522;42.696;23.494;2022-11-03T02:11:16;13.52;;;4.53;;
10939;SDS011;5522;42.696;23.494;2022-11-03T02:14:00;11.52;;;4.07;;
10939;SDS011;5522;42.696;23.494;2022-11-03T02:16:27;9.25;;;3.90;;
10939;SDS011;5522;42.696;23.494;2022-11-03T02:18:59;12.65;;;4.22;;
10939;SDS011;5522;42.696;23.494;2022-11-03T02:21:29;12.95;;;4.10;;
10939;SDS011;5522;42.696;23.494;2022-11-03T02:24:05;12.63;;;4.43;;
10939;SDS011;5522;42.696;23.494;2022-11-03T02:26:40;9.95;;;3.97;;
10939;SDS011;5522;42.696;23.494;2022-11-03T02:29:13;13.77;;;4.97;;
10939;SDS011;5522;42.696;23.494;2022-11-03T02:31:40;10.18;;;4.43;;
10939;SDS011;5522;42.696;23.494;2022-11-03T02:34:11;9.38;;;4.22;;
10939;SDS011;5522;42.696;23.494;2022-11-03T02:36:43;11.63;;;4.25;;
10939;SDS011;5522;42.696;23.494;2022-11-03T02:39:15;9.05;;;3.70;;
10939;SDS011;5522;42.696;23.494;2022-11-03T02:41:47;8.80;;;4.63;;
10939;SDS011;5522;42.696;23.494;2022-11-03T02:44:16;9.00;;;4.30;;
10939;SDS011;5522;42.696;23.494;2022-11-03T02:46:44;10.23;;;3.92;;
10939;SDS011;5522;42.696;23.494;2022-11-03T02:49:14;9.73;;;3.85;;
10939;SDS011;5522;42.696;23.494;2022-11-03T02:51:41;8.85;;;4.40;;
10939;SDS011;5522;42.696;23.494;2022-11-03T02:54:10;7.40;;;3.80;;
10939;SDS011;5522;42.696;23.494;2022-11-03T02:56:42;9.70;;;4.22;;
10939;SDS011;5522;42.696;23.494;2022-11-03T02:59:17;12.38;;;3.85;;
10939;SDS011;5522;42.696;23.494;2022-11-03T03:01:49;10.10;;;4.55;;
10939;SDS011;5522;42.696;23.494;2022-11-03T03:04:21;10.57;;;4.60;;
10939;SDS011;5522;42.696;23.494;2022-11-03T03:06:52;12.45;;;4.00;;
10939;SDS011;5522;42.696;23.494;2022-11-03T03:09:24;9.23;;;4.47;;
10939;SDS011;5522;42.696;23.494;2022-11-03T03:11:57;9.95;;;3.97;;
10939;SDS011;5522;42.696;23.494;2022-11-03T03:14:27;10.83;;;5.00;;
10939;SDS011;5522;42.696;23.494;2022-11-03T03:16:58;11.63;;;4.28;;
10939;SDS011;5522;42.696;23.494;2022-11-03T03:19:28;9.68;;;4.43;;
10939;SDS011;5522;42.696;23.494;2022-11-03T03:22:02;11.95;;;3.92;;
10939;SDS011;5522;42.696;23.494;2022-11-03T03:24:35;13.00;;;4.07;;
10939;SDS011;5522;42.696;23.494;2022-11-03T03:27:08;9.77;;;4.07;;
10939;SDS011;5522;42.696;23.494;2022-11-03T03:29:40;16.27;;;4.43;;
10939;SDS011;5522;42.696;23.494;2022-11-03T03:32:13;10.05;;;4.63;;
10939;SDS011;5522;42.696;23.494;2022-11-03T03:34:45;7.28;;;3.63;;
10939;SDS011;5522;42.696;23.494;2022-11-03T03:37:14;9.02;;;4.97;;
10939;SDS011;5522;42.696;23.494;2022-11-03T03:39:43;7.47;;;3.88;;
10939;SDS011;5522;42.696;23.494;2022-11-03T03:42:13;11.35;;;4.50;;
10939;SDS011;5522;42.696;23.494;2022-11-03T03:44:43;5.95;;;4.10;;
10939;SDS011;5522;42.696;23.494;2022-11-03T03:47:13;9.70;;;4.60;;
10939;SDS011;5522;42.696;23.494;2022-11-03T03:49:44;9.25;;;4.10;;
10939;SDS011;5522;42.696;23.494;2022-11-03T03:52:11;8.55;;;4.47;;
10939;SDS011;5522;42.696;23.494;2022-11-03T03:54:38;9.57;;;3.95;;
10939;SDS011;5522;42.696;23.494;2022-11-03T03:57:05;12.18;;;4.53;;
10939;SDS011;5522;42.696;23.494;2022-11-03T03:59:35;7.85;;;4.10;;
10939;SDS011;5522;42.696;23.494;2022-11-03T04:02:03;14.93;;;3.85;;
10939;SDS011;5522;42.696;23.494;2022-11-03T04:04:30;10.68;;;4.35;;
10939;SDS011;5522;42.696;23.494;2022-11-03T04:06:57;10.63;;;4.35;;
10939;SDS011;5522;42.696;23.494;2022-11-03T04:09:38;10.40;;;4.72;;
10939;SDS011;5522;42.696;23.494;2022-11-03T04:12:05;12.02;;;4.45;;
10939;SDS011;5522;42.696;23.494;2022-11-03T04:14:50;13.40;;;4.35;;
10939;SDS011;5522;42.696;23.494;2022-11-03T04:17:36;11.90;;;4.45;;
10939;SDS011;5522;42.696;23.494;2022-11-03T04:20:24;10.10;;;3.78;;
10939;SDS011;5522;42.696;23.494;2022-11-03T04:23:09;15.18;;;5.15;;
10939;SDS011;5522;42.696;23.494;2022-11-03T04:25:36;12.32;;;4.35;;
10939;SDS011;5522;42.696;23.494;2022-11-03T04:28:04;11.23;;;4.57;;
10939;SDS011;5522;42.696;23.494;2022-11-03T04:30:34;14.25;;;5.40;;
10939;SDS011;5522;42.696;23.494;2022-11-03T04:33:03;8.30;;;4.20;;
10939;SDS011;5522;42.696;23.494;2022-11-03T04:35:37;10.95;;;4.18;;
10939;SDS011;5522;42.696;23.494;2022-11-03T04:38:17;8.57;;;4.70;;
10939;SDS011;5522;42.696;23.494;2022-11-03T04:40:47;10.20;;;4.68;;
10939;SDS011;5522;42.696;23.494;2022-11-03T04:43:16;10.40;;;4.35;;
10939;SDS011;5522;42.696;23.494;2022-11-03T04:45:44;9.57;;;4.43;;
10939;SDS011;5522;42.696;23.494;2022-11-03T04:48:14;14.38;;;5.45;;
10939;SDS011;5522;42.696;23.494;2022-11-03T04:50:44;15.00;;;5.15;;
10939;SDS011;5522;42.696;23.494;2022-11-03T04:53:12;10.10;;;5.32;;
10939;SDS011;5522;42.696;23.494;2022-11-03T04:55:41;14.43;;;4.78;;
10939;SDS011;5522;42.696;23.494;2022-11-03T04:58:12;16.13;;;4.78;;
10939;SDS011;5522;42.696;23.494;2022-11-03T05:00:44;9.45;;;4.80;;
10939;SDS011;5522;42.696;23.494;2022-11-03T05:03:15;8.18;;;4.25;;
10939;SDS011;5522;42.696;23.494;2022-11-03T05:05:46;11.43;;;4.45;;
10939;SDS011;5522;42.696;23.494;2022-11-03T05:08:13;23.90;;;11.88;;
10939;SDS011;5522;42.696;23.494;2022-11-03T05:10:42;10.75;;;5.25;;
10939;SDS011;5522;42.696;23.494;2022-11-03T05:13:10;12.50;;;4.93;;
10939;SDS011;5522;42.696;23.494;2022-11-03T05:15:43;13.43;;;4.40;;
10939;SDS011;5522;42.696;23.494;2022-11-03T05:18:14;10.10;;;5.05;;
10939;SDS011;5522;42.696;23.494;2022-11-03T05:20:47;12.20;;;5.15;;
10939;SDS011;5522;42.696;23.494;2022-11-03T05:23:17;14.00;;;5.72;;
10939;SDS011;5522;42.696;23.494;2022-11-03T05:25:45;30.77;;;15.77;;
10939;SDS011;5522;42.696;23.494;2022-11-03T05:28:19;22.42;;;10.13;;
10939;SDS011;5522;42.696;23.494;2022-11-03T05:30:48;11.68;;;6.35;;
10939;SDS011;5522;42.696;23.494;2022-11-03T05:33:20;11.48;;;5.22;;
10939;SDS011;5522;42.696;23.494;2022-11-03T05:35:50;14.38;;;5.32;;
10939;SDS011;5522;42.696;23.494;2022-11-03T05:38:18;17.85;;;8.82;;
10939;SDS011;5522;42.696;23.494;2022-11-03T05:40:48;11.52;;;4.70;;
10939;SDS011;5522;42.696;23.494;2022-11-03T05:43:17;13.27;;;4.30;;
10939;SDS011;5522;42.696;23.494;2022-11-03T05:45:45;15.10;;;4.45;;
10939;SDS011;5522;42.696;23.494;2022-11-03T05:48:15;14.63;;;3.70;;
10939;SDS011;5522;42.696;23.494;2022-11-03T05:50:49;12.13;;;3.78;;
10939;SDS011;5522;42.696;23.494;2022-11-03T05:53:24;6.88;;;2.90;;
10939;SDS011;5522;42.696;23.494;2022-11-03T05:55:54;13.43;;;3.58;;
10939;SDS011;5522;42.696;23.494;2022-11-03T05:58:24;14.63;;;4.35;;
10939;SDS011;5522;42.696;23.494;2022-11-03T06:00:54;9.10;;;3.17;;
10939;SDS011;5522;42.696;23.494;2022-11-03T06:03:22;10.32;;;3.30;;
10939;SDS011;5522;42.696;23.494;2022-11-03T06:05:53;13.13;;;3.28;;
10939;SDS011;5522;42.696;23.494;2022-11-03T06:08:23;9.60;;;3.25;;
10939;SDS011;5522;42.696;23.494;2022-11-03T06:10:53;7.47;;;3.28;;
10939;SDS011;5522;42.696;23.494;2022-11-03T06:13:24;11.43;;;2.88;;
10939;SDS011;5522;42.696;23.494;2022-11-03T06:15:55;8.68;;;3.17;;
10939;SDS011;5522;42.696;23.494;2022-11-03T06:18:24;9.63;;;4.00;;
10939;SDS011;5522;42.696;23.494;2022-11-03T06:20:58;9.02;;;3.38;;
10939;SDS011;5522;42.696;23.494;2022-11-03T06:23:31;7.30;;;3.17;;
10939;SDS011;5522;42.696;23.494;2022-11-03T06:26:01;11.18;;;5.38;;
10939;SDS011;5522;42.696;23.494;2022-11-03T06:28:29;6.93;;;2.90;;
10939;SDS011;5522;42.696;23.494;2022-11-03T06:31:00;9.40;;;2.90;;
10939;SDS011;5522;42.696;23.494;2022-11-03T06:33:32;6.50;;;2.97;;
10939;SDS011;5522;42.696;23.494;2022-11-03T06:36:02;16.55;;;6.28;;
10939;SDS011;5522;42.696;23.494;2022-11-03T06:38:38;12.40;;;6.30;;
10939;SDS011;5522;42.696;23.494;2022-11-03T06:41:06;8.55;;;3.60;;
10939;SDS011;5522;42.696;23.494;2022-11-03T06:43:41;11.02;;;3.38;;
10939;SDS011;5522;42.696;23.494;2022-11-03T06:46:11;9.85;;;3.17;;
10939;SDS011;5522;42.696;23.494;2022-11-03T06:48:44;7.25;;;4.28;;
10939;SDS011;5522;42.696;23.494;2022-11-03T06:51:14;10.93;;;4.32;;
10939;SDS011;5522;42.696;23.494;2022-11-03T06:53:44;13.70;;;5.10;;
10939;SDS011;5522;42.696;23.494;2022-11-03T06:56:12;17.80;;;5.63;;
10939;SDS011;5522;42.696;23.494;2022-11-03T06:58:40;10.48;;;6.57;;
10939;SDS011;5522;42.696;23.494;2022-11-03T07:01:10;16.42;;;7.75;;
10939;SDS011;5522;42.696;23.494;2022-11-03T07:03:40;17.17;;;8.40;;
10939;SDS011;5522;42.696;23.494;2022-11-03T07:06:12;10.93;;;8.73;;
10939;SDS011;5522;42.696;23.494;2022-11-03T07:08:45;20.38;;;10.02;;
10939;SDS011;5522;42.696;23.494;2022-11-03T07:11:15;12.23;;;9.05;;
10939;SDS011;5522;42.696;23.494;2022-11-03T07:13:44;39.08;;;11.63;;
10939;SDS011;5522;42.696;23.494;2022-11-03T07:16:14;17.13;;;10.32;;
10939;SDS011;5522;42.696;23.494;2022-11-03T07:18:45;17.10;;;9.15;;
10939;SDS011;5522;42.696;23.494;2022-11-03T07:21:22;21.45;;;11.05;;
10939;SDS011;5522;42.696;23.494;2022-11-03T07:23:54;20.63;;;10.43;;
10939;SDS011;5522;42.696;23.494;2022-11-03T07:26:22;17.95;;;11.00;;
10939;SDS011;5522;42.696;23.494;2022-11-03T07:28:49;21.23;;;10.93;;
10939;SDS011;5522;42.696;23.494;2022-11-03T07:31:17;19.13;;;11.73;;
10939;SDS011;5522;42.696;23.494;2022-11-03T07:33:47;23.85;;;12.25;;
10939;SDS011;5522;42.696;23.494;2022-11-03T07:36:17;19.98;;;11.40;;
10939;SDS011;5522;42.696;23.494;2022-11-03T07:38:49;24.55;;;13.68;;
10939;SDS011;5522;42.696;23.494;2022-11-03T07:41:19;23.17;;;12.05;;
10939;SDS011;5522;42.696;23.494;2022-11-03T07:43:49;48.22;;;23.55;;
10939;SDS011;5522;42.696;23.494;2022-11-03T07:46:20;34.60;;;17.52;;
10939;SDS011;5522;42.696;23.494;2022-11-03T07:48:48;35.45;;;13.55;;
10939;SDS011;5522;42.696;23.494;2022-11-03T07:51:18;27.13;;;12.65;;
10939;SDS011;5522;42.696;23.494;2022-11-03T07:53:47;27.45;;;13.32;;
10939;SDS011;5522;42.696;23.494;2022-11-03T07:56:17;26.95;;;13.65;;
10939;SDS011;5522;42.696;23.494;2022-11-03T07:58:45;23.38;;;13.77;;
10939;SDS011;5522;42.696;23.494;2022-11-03T08:01:24;25.75;;;14.43;;
10939;SDS011;5522;42.696;23.494;2022-11-03T08:03:54;26.83;;;14.10;;
10939;SDS011;5522;42.696;23.494;2022-11-03T08:06:25;36.15;;;14.25;;
10939;SDS011;5522;42.696;23.494;2022-11-03T08:08:52;24.05;;;13.30;;
10939;SDS011;5522;42.696;23.494;2022-11-03T08:11:19;23.92;;;13.57;;
10939;SDS011;5522;42.696;23.494;2022-11-03T08:13:47;26.20;;;14.50;;
10939;SDS011;5522;42.696;23.494;2022-11-03T08:16:14;23.55;;;14.80;;
10939;SDS011;5522;42.696;23.494;2022-11-03T08:18:41;27.73;;;13.60;;
10939;SDS011;5522;42.696;23.494;2022-11-03T08:21:08;22.63;;;13.35;;
10939;SDS011;5522;42.696;23.494;2022-11-03T08:23:36;22.30;;;13.75;;
10939;SDS011;5522;42.696;23.494;2022-11-03T08:26:04;29.52;;;13.65;;
10939;SDS011;5522;42.696;23.494;2022-11-03T08:28:31;33.78;;;14.15;;
10939;SDS011;5522;42.696;23.494;2022-11-03T08:30:58;25.15;;;14.30;;
10939;SDS011;5522;42.696;23.494;2022-11-03T08:33:28;29.10;;;14.93;;
10939;SDS011;5522;42.696;23.494;2022-11-03T08:35:55;23.10;;;14.77;;
10939;SDS011;5522;42.696;23.494;2022-11-03T08:38:22;24.75;;;14.02;;
10939;SDS011;5522;42.696;23.494;2022-11-03T08:40:50;22.55;;;13.25;;
10939;SDS011;5522;42.696;23.494;2022-11-03T08:43:17;22.73;;;13.27;;
10939;SDS011;5522;42.696;23.494;2022-11-03T08:45:44;26.05;;;15.90;;
10939;SDS011;5522;42.696;23.494;2022-11-03T08:48:11;32.45;;;19.63;;
10939;SDS011;5522;42.696;23.494;2022-11-03T08:50:38;28.30;;;15.68;;
10939;SDS011;5522;42.696;23.494;2022-11-03T08:53:05;25.52;;;15.82;;
10939;SDS011;5522;42.696;23.494;2022-11-03T08:55:31;26.13;;;15.10;;
10939;SDS011;5522;42.696;23.494;2022-11-03T08:58:00;28.30;;;14.07;;
10939;SDS011;5522;42.696;23.494;2022-11-03T09:00:26;23.05;;;14.48;;
10939;SDS011;5522;42.696;23.494;2022-11-03T09:02:53;24.75;;;14.57;;
10939;SDS011;5522;42.696;23.494;2022-11-03T09:05:20;24.50;;;13.27;;
10939;SDS011;5522;42.696;23.494;2022-11-03T09:07:47;27.17;;;14.20;;
10939;SDS011;5522;42.696;23.494;2022-11-03T09:10:14;26.23;;;14.73;;
10939;SDS011;5522;42.696;23.494;2022-11-03T09:12:41;24.75;;;14.35;;
10939;SDS011;5522;42.696;23.494;2022-11-03T09:15:09;26.25;;;13.10;;
10939;SDS011;5522;42.696;23.494;2022-11-03T09:17:38;25.40;;;14.25;;
10939;SDS011;5522;42.696;23.494;2022-11-03T09:20:05;21.08;;;14.48;;
10939;SDS011;5522;42.696;23.494;2022-11-03T09:22:32;26.88;;;16.33;;
10939;SDS011;5522;42.696;23.494;2022-11-03T09:24:58;24.88;;;14.40;;
10939;SDS011;5522;42.696;23.494;2022-11-03T09:27:25;25.95;;;12.85;;
10939;SDS011;5522;42.696;23.494;2022-11-03T09:29:52;35.53;;;19.48;;
10939;SDS011;5522;42.696;23.494;2022-11-03T09:32:20;27.15;;;10.20;;
10939;SDS011;5522;42.696;23.494;2022-11-03T09:34:47;29.25;;;13.65;;
10939;SDS011;5522;42.696;23.494;2022-11-03T09:37:14;23.83;;;11.13;;
10939;SDS011;5522;42.696;23.494;2022-11-03T09:39:41;32.55;;;13.88;;
10939;SDS011;5522;42.696;23.494;2022-11-03T09:42:09;26.80;;;13.32;;
10939;SDS011;5522;42.696;23.494;2022-11-03T09:44:37;41.15;;;14.68;;
10939;SDS011;5522;42.696;23.494;2022-11-03T09:47:04;40.38;;;21.38;;
10939;SDS011;5522;42.696;23.494;2022-11-03T09:49:33;34.88;;;13.82;;
10939;SDS011;5522;42.696;23.494;2022-11-03T09:52:01;37.88;;;15.40;;
10939;SDS011;5522;42.696;23.494;2022-11-03T09:54:29;17.20;;;9.55;;
10939;SDS011;5522;42.696;23.494;2022-11-03T09:56:57;21.45;;;10.70;;
10939;SDS011;5522;42.696;23.494;2022-11-03T09:59:30;20.33;;;9.82;;
10939;SDS011;5522;42.696;23.494;2022-11-03T10:01:57;22.83;;;7.40;;
10939;SDS011;5522;42.696;23.494;2022-11-03T10:04:25;14.60;;;8.30;;
10939;SDS011;5522;42.696;23.494;2022-11-03T10:06:55;17.73;;;8.15;;
10939;SDS011;5522;42.696;23.494;2022-11-03T10:09:23;19.08;;;8.32;;
10939;SDS011;5522;42.696;23.494;2022-11-03T10:11:52;21.05;;;9.10;;
10939;SDS011;5522;42.696;23.494;2022-11-03T10:14:20;18.20;;;8.95;;
10939;SDS011;5522;42.696;23.494;2022-11-03T10:16:50;19.10;;;10.27;;
10939;SDS011;5522;42.696;23.494;2022-11-03T10:19:20;17.48;;;8.70;;
10939;SDS011;5522;42.696;23.494;2022-11-03T10:21:48;17.52;;;7.35;;
10939;SDS011;5522;42.696;23.494;2022-11-03T10:24:18;23.25;;;7.95;;
10939;SDS011;5522;42.696;23.494;2022-11-03T10:26:45;14.65;;;8.77;;
10939;SDS011;5522;42.696;23.494;2022-11-03T10:29:16;16.40;;;8.15;;
10939;SDS011;5522;42.696;23.494;2022-11-03T10:31:45;20.95;;;9.25;;
10939;SDS011;5522;42.696;23.494;2022-11-03T10:34:24;15.38;;;8.32;;
10939;SDS011;5522;42.696;23.494;2022-11-03T10:39:47;17.00;;;7.60;;
10939;SDS011;5522;42.696;23.494;2022-11-03T10:42:16;17.10;;;9.15;;
10939;SDS011;5522;42.696;23.494;2022-11-03T10:44:45;21.00;;;9.48;;
10939;SDS011;5522;42.696;23.494;2022-11-03T10:47:23;15.20;;;7.93;;
10939;SDS011;5522;42.696;23.494;2022-11-03T10:49:51;10.65;;;5.97;;
10939;SDS011;5522;42.696;23.494;2022-11-03T10:52:20;13.88;;;4.85;;
10939;SDS011;5522;42.696;23.494;2022-11-03T10:54:51;21.58;;;6.13;;
10939;SDS011;5522;42.696;23.494;2022-11-03T10:57:19;24.33;;;10.55;;
10939;SDS011;5522;42.696;23.494;2022-11-03T10:59:48;20.05;;;8.80;;
10939;SDS011;5522;42.696;23.494;2022-11-03T11:02:16;12.07;;;5.38;;
10939;SDS011;5522;42.696;23.494;2022-11-03T11:04:46;14.55;;;6.65;;
10939;SDS011;5522;42.696;23.494;2022-11-03T11:07:17;9.88;;;4.95;;
10939;SDS011;5522;42.696;23.494;2022-11-03T11:09:49;10.38;;;4.07;;
10939;SDS011;5522;42.696;23.494;2022-11-03T11:12:19;13.93;;;4.32;;
10939;SDS011;5522;42.696;23.494;2022-11-03T11:14:51;12.23;;;3.50;;
10939;SDS011;5522;42.696;23.494;2022-11-03T11:20:17;11.10;;;2.38;;
10939;SDS011;5522;42.696;23.494;2022-11-03T11:26:16;11.32;;;3.88;;
10939;SDS011;5522;42.696;23.494;2022-11-03T11:35:17;12.23;;;3.67;;
10939;SDS011;5522;42.696;23.494;2022-11-03T11:40:59;11.57;;;3.15;;
10939;SDS011;5522;42.696;23.494;2022-11-03T11:43:27;6.53;;;2.80;;
10939;SDS011;5522;42.696;23.494;2022-11-03T11:49:16;9.30;;;2.47;;
10939;SDS011;5522;42.696;23.494;2022-11-03T11:51:43;11.77;;;1.85;;
10939;SDS011;5522;42.696;23.494;2022-11-03T11:54:12;11.25;;;1.70;;
10939;SDS011;5522;42.696;23.494;2022-11-03T11:56:42;13.70;;;1.02;;
10939;SDS011;5522;42.696;23.494;2022-11-03T11:59:17;8.02;;;1.95;;
10939;SDS011;5522;42.696;23.494;2022-11-03T12:01:48;7.38;;;1.40;;
10939;SDS011;5522;42.696;23.494;2022-11-03T12:04:17;21.85;;;2.38;;
10939;SDS011;5522;42.696;23.494;2022-11-03T12:06:47;11.48;;;1.63;;
10939;SDS011;5522;42.696;23.494;2022-11-03T12:09:15;9.00;;;1.58;;
10939;SDS011;5522;42.696;23.494;2022-11-03T12:11:44;3.90;;;1.08;;
10939;SDS011;5522;42.696;23.494;2022-11-03T12:14:31;13.68;;;1.30;;
10939;SDS011;5522;42.696;23.494;2022-11-03T12:17:29;4.18;;;1.02;;
10939;SDS011;5522;42.696;23.494;2022-11-03T12:19:58;4.78;;;0.60;;
10939;SDS011;5522;42.696;23.494;2022-11-03T12:22:40;7.40;;;1.13;;
10939;SDS011;5522;42.696;23.494;2022-11-03T12:28:00;6.22;;;0.73;;
10939;SDS011;5522;42.696;23.494;2022-11-03T12:30:28;3.38;;;0.50;;
10939;SDS011;5522;42.696;23.494;2022-11-03T12:32:55;4.28;;;0.60;;
10939;SDS011;5522;42.696;23.494;2022-11-03T12:35:22;5.00;;;0.38;;
10939;SDS011;5522;42.696;23.494;2022-11-03T12:37:48;5.60;;;0.40;;
10939;SDS011;5522;42.696;23.494;2022-11-03T12:40:15;5.65;;;0.30;;
10939;SDS011;5522;42.696;23.494;2022-11-03T12:42:42;3.83;;;0.40;;
10939;SDS011;5522;42.696;23.494;2022-11-03T12:45:09;8.10;;;0.93;;
10939;SDS011;5522;42.696;23.494;2022-11-03T12:47:39;8.45;;;0.73;;
10939;SDS011;5522;42.696;23.494;2022-11-03T12:50:06;3.78;;;0.50;;
10939;SDS011;5522;42.696;23.494;2022-11-03T12:52:34;6.47;;;0.50;;
10939;SDS011;5522;42.696;23.494;2022-11-03T12:55:00;4.65;;;0.40;;
10939;SDS011;5522;42.696;23.494;2022-11-03T12:57:27;5.28;;;0.60;;
10939;SDS011;5522;42.696;23.494;2022-11-03T12:59:54;3.40;;;0.40;;
10939;SDS011;5522;42.696;23.494;2022-11-03T13:02:21;5.43;;;0.47;;
10939;SDS011;5522;42.696;23.494;2022-11-03T13:04:49;12.13;;;0.70;;
10939;SDS011;5522;42.696;23.494;2022-11-03T13:07:16;6.22;;;0.43;;
10939;SDS011;5522;42.696;23.494;2022-11-03T13:09:42;4.70;;;0.40;;
10939;SDS011;5522;42.696;23.494;2022-11-03T13:12:10;5.78;;;0.47;;
10939;SDS011;5522;42.696;23.494;2022-11-03T13:14:55;3.70;;;0.40;;
10939;SDS011;5522;42.696;23.494;2022-11-03T13:17:22;4.63;;;0.55;;
10939;SDS011;5522;42.696;23.494;2022-11-03T13:19:50;6.40;;;0.52;;
10939;SDS011;5522;42.696;23.494;2022-11-03T13:22:17;4.05;;;0.50;;
10939;SDS011;5522;42.696;23.494;2022-11-03T13:24:44;4.88;;;0.50;;
10939;SDS011;5522;42.696;23.494;2022-11-03T13:27:11;4.40;;;0.50;;
10939;SDS011;5522;42.696;23.494;2022-11-03T13:29:38;6.03;;;0.60;;
10939;SDS011;5522;42.696;23.494;2022-11-03T13:32:05;7.53;;;2.47;;
10939;SDS011;5522;42.696;23.494;2022-11-03T13:34:33;5.88;;;1.00;;
10939;SDS011;5522;42.696;23.494;2022-11-03T13:37:01;6.70;;;2.03;;
10939;SDS011;5522;42.696;23.494;2022-11-03T13:39:28;12.48;;;1.63;;
10939;SDS011;5522;42.696;23.494;2022-11-03T13:41:55;5.80;;;0.70;;
10939;SDS011;5522;42.696;23.494;2022-11-03T13:44:22;7.88;;;0.80;;
10939;SDS011;5522;42.696;23.494;2022-11-03T13:46:49;11.05;;;1.10;;
10939;SDS011;5522;42.696;23.494;2022-11-03T13:49:16;6.40;;;0.70;;
10939;SDS011;5522;42.696;23.494;2022-11-03T13:51:45;8.98;;;0.80;;
10939;SDS011;5522;42.696;23.494;2022-11-03T13:54:13;6.53;;;0.73;;
10939;SDS011;5522;42.696;23.494;2022-11-03T13:56:40;8.25;;;0.70;;
10939;SDS011;5522;42.696;23.494;2022-11-03T13:59:07;7.78;;;0.75;;
10939;SDS011;5522;42.696;23.494;2022-11-03T14:01:33;7.53;;;0.82;;
10939;SDS011;5522;42.696;23.494;2022-11-03T14:04:00;5.35;;;0.77;;
10939;SDS011;5522;42.696;23.494;2022-11-03T14:06:27;4.70;;;0.90;;
10939;SDS011;5522;42.696;23.494;2022-11-03T14:08:54;5.93;;;0.90;;
10939;SDS011;5522;42.696;23.494;2022-11-03T14:11:22;7.70;;;0.60;;
10939;SDS011;5522;42.696;23.494;2022-11-03T14:14:06;8.55;;;0.70;;
10939;SDS011;5522;42.696;23.494;2022-11-03T14:16:33;5.90;;;0.80;;
10939;SDS011;5522;42.696;23.494;2022-11-03T14:19:00;12.98;;;1.50;;
10939;SDS011;5522;42.696;23.494;2022-11-03T14:21:27;7.20;;;1.25;;
10939;SDS011;5522;42.696;23.494;2022-11-03T14:23:53;8.98;;;1.15;;
10939;SDS011;5522;42.696;23.494;2022-11-03T14:26:20;5.75;;;1.13;;
10939;SDS011;5522;42.696;23.494;2022-11-03T14:28:49;7.93;;;1.17;;
10939;SDS011;5522;42.696;23.494;2022-11-03T14:31:16;9.80;;;0.95;;
10939;SDS011;5522;42.696;23.494;2022-11-03T14:33:43;7.50;;;0.63;;
10939;SDS011;5522;42.696;23.494;2022-11-03T14:36:10;4.78;;;0.70;;
10939;SDS011;5522;42.696;23.494;2022-11-03T14:38:37;9.15;;;0.80;;
10939;SDS011;5522;42.696;23.494;2022-11-03T14:41:03;6.78;;;0.90;;
10939;SDS011;5522;42.696;23.494;2022-11-03T14:43:49;5.45;;;0.88;;
10939;SDS011;5522;42.696;23.494;2022-11-03T14:46:16;10.73;;;1.10;;
10939;SDS011;5522;42.696;23.494;2022-11-03T14:48:43;6.40;;;1.08;;
10939;SDS011;5522;42.696;23.494;2022-11-03T14:51:10;5.78;;;2.45;;
10939;SDS011;5522;42.696;23.494;2022-11-03T14:53:37;7.47;;;0.82;;
10939;SDS011;5522;42.696;23.494;2022-11-03T14:56:03;10.13;;;1.60;;
10939;SDS011;5522;42.696;23.494;2022-11-03T14:58:30;11.23;;;1.00;;
10939;SDS011;5522;42.696;23.494;2022-11-03T15:00:59;6.78;;;0.68;;
10939;SDS011;5522;42.696;23.494;2022-11-03T15:03:25;10.55;;;1.05;;
10939;SDS011;5522;42.696;23.494;2022-11-03T15:05:52;15.73;;;1.88;;
10939;SDS011;5522;42.696;23.494;2022-11-03T15:08:20;52.03;;;20.63;;
10939;SDS011;5522;42.696;23.494;2022-11-03T15:10:47;25.35;;;2.40;;
10939;SDS011;5522;42.696;23.494;2022-11-03T15:13:14;30.77;;;2.42;;
10939;SDS011;5522;42.696;23.494;2022-11-03T15:15:42;31.27;;;2.15;;
10939;SDS011;5522;42.696;23.494;2022-11-03T15:18:10;17.50;;;1.92;;
10939;SDS011;5522;42.696;23.494;2022-11-03T15:20:37;10.52;;;0.75;;